sensor_id;sensor_type;location;lat;lon;timestamp;P1;durP1;ratioP1;P2;durP2;ratioP2
7110;SDS011;3597;42.650;23.386;2023-04-15T00:00:09;0.90;;;0.90;;
7110;SDS011;3597;42.650;23.386;2023-04-15T00:02:34;0.87;;;0.87;;
7110;SDS011;3597;42.650;23.386;2023-04-15T00:05:01;1.00;;;1.00;;
7110;SDS011;3597;42.650;23.386;2023-04-15T00:07:26;1.10;;;1.10;;
7110;SDS011;3597;42.650;23.386;2023-04-15T00:09:52;1.00;;;1.00;;
7110;SDS011;3597;42.650;23.386;2023-04-15T00:12:19;0.90;;;0.90;;
7110;SDS011;3597;42.650;23.386;2023-04-15T00:14:45;0.93;;;0.93;;
7110;SDS011;3597;42.650;23.386;2023-04-15T00:17:11;1.10;;;1.10;;
7110;SDS011;3597;42.650;23.386;2023-04-15T00:19:37;1.07;;;1.07;;
7110;SDS011;3597;42.650;23.386;2023-04-15T00:22:02;1.00;;;1.00;;
7110;SDS011;3597;42.650;23.386;2023-04-15T00:24:27;1.20;;;1.20;;
7110;SDS011;3597;42.650;23.386;2023-04-15T00:26:54;2.73;;;1.20;;
7110;SDS011;3597;42.650;23.386;2023-04-15T00:29:20;1.33;;;1.33;;
7110;SDS011;3597;42.650;23.386;2023-04-15T00:31:45;1.30;;;1.30;;
7110;SDS011;3597;42.650;23.386;2023-04-15T00:34:11;1.20;;;1.20;;
7110;SDS011;3597;42.650;23.386;2023-04-15T00:36:36;1.20;;;1.20;;
7110;SDS011;3597;42.650;23.386;2023-04-15T00:39:02;1.00;;;1.00;;
7110;SDS011;3597;42.650;23.386;2023-04-15T00:41:27;0.97;;;0.97;;
7110;SDS011;3597;42.650;23.386;2023-04-15T00:43:53;1.03;;;1.03;;
7110;SDS011;3597;42.650;23.386;2023-04-15T00:46:18;1.20;;;1.20;;
7110;SDS011;3597;42.650;23.386;2023-04-15T00:48:45;1.40;;;1.40;;
7110;SDS011;3597;42.650;23.386;2023-04-15T00:51:11;1.00;;;1.00;;
7110;SDS011;3597;42.650;23.386;2023-04-15T00:53:37;1.17;;;1.17;;
7110;SDS011;3597;42.650;23.386;2023-04-15T00:56:02;1.10;;;1.10;;
7110;SDS011;3597;42.650;23.386;2023-04-15T00:58:27;1.30;;;1.30;;
7110;SDS011;3597;42.650;23.386;2023-04-15T01:00:54;1.40;;;1.30;;
7110;SDS011;3597;42.650;23.386;2023-04-15T01:03:20;1.00;;;1.00;;
7110;SDS011;3597;42.650;23.386;2023-04-15T01:05:45;0.70;;;0.70;;
7110;SDS011;3597;42.650;23.386;2023-04-15T01:08:11;1.20;;;1.20;;
7110;SDS011;3597;42.650;23.386;2023-04-15T01:10:36;1.00;;;1.00;;
7110;SDS011;3597;42.650;23.386;2023-04-15T01:13:02;1.17;;;1.17;;
7110;SDS011;3597;42.650;23.386;2023-04-15T01:15:28;0.80;;;0.80;;
7110;SDS011;3597;42.650;23.386;2023-04-15T01:17:53;0.93;;;0.93;;
7110;SDS011;3597;42.650;23.386;2023-04-15T01:20:19;1.00;;;1.00;;
7110;SDS011;3597;42.650;23.386;2023-04-15T01:22:44;1.10;;;1.10;;
7110;SDS011;3597;42.650;23.386;2023-04-15T01:25:11;1.00;;;1.00;;
7110;SDS011;3597;42.650;23.386;2023-04-15T01:27:38;0.93;;;0.93;;
7110;SDS011;3597;42.650;23.386;2023-04-15T01:30:06;1.00;;;1.00;;
7110;SDS011;3597;42.650;23.386;2023-04-15T01:32:32;1.10;;;1.10;;
7110;SDS011;3597;42.650;23.386;2023-04-15T01:34:58;0.83;;;0.83;;
7110;SDS011;3597;42.650;23.386;2023-04-15T01:37:23;0.70;;;0.70;;
7110;SDS011;3597;42.650;23.386;2023-04-15T01:39:49;1.00;;;1.00;;
7110;SDS011;3597;42.650;23.386;2023-04-15T01:42:14;1.10;;;1.10;;
7110;SDS011;3597;42.650;23.386;2023-04-15T01:44:40;1.07;;;1.07;;
7110;SDS011;3597;42.650;23.386;2023-04-15T01:47:05;0.90;;;0.90;;
7110;SDS011;3597;42.650;23.386;2023-04-15T01:49:31;1.00;;;1.00;;
7110;SDS011;3597;42.650;23.386;2023-04-15T01:51:56;1.00;;;1.00;;
7110;SDS011;3597;42.650;23.386;2023-04-15T01:54:22;1.00;;;1.00;;
7110;SDS011;3597;42.650;23.386;2023-04-15T01:56:47;1.17;;;1.17;;
7110;SDS011;3597;42.650;23.386;2023-04-15T01:59:12;1.33;;;1.23;;
7110;SDS011;3597;42.650;23.386;2023-04-15T02:01:38;1.17;;;1.17;;
7110;SDS011;3597;42.650;23.386;2023-04-15T02:04:03;1.00;;;1.00;;
7110;SDS011;3597;42.650;23.386;2023-04-15T02:06:29;1.10;;;1.10;;
7110;SDS011;3597;42.650;23.386;2023-04-15T02:08:54;1.20;;;1.20;;
7110;SDS011;3597;42.650;23.386;2023-04-15T02:11:19;1.30;;;1.30;;
7110;SDS011;3597;42.650;23.386;2023-04-15T02:13:45;1.10;;;1.10;;
7110;SDS011;3597;42.650;23.386;2023-04-15T02:16:17;1.17;;;1.17;;
7110;SDS011;3597;42.650;23.386;2023-04-15T02:18:46;1.10;;;1.10;;
7110;SDS011;3597;42.650;23.386;2023-04-15T02:21:12;1.00;;;1.00;;
7110;SDS011;3597;42.650;23.386;2023-04-15T02:23:37;1.00;;;1.00;;
7110;SDS011;3597;42.650;23.386;2023-04-15T02:26:03;1.20;;;1.20;;
7110;SDS011;3597;42.650;23.386;2023-04-15T02:28:28;1.40;;;1.40;;
7110;SDS011;3597;42.650;23.386;2023-04-15T02:30:53;1.10;;;1.10;;
7110;SDS011;3597;42.650;23.386;2023-04-15T02:33:21;1.17;;;1.17;;
7110;SDS011;3597;42.650;23.386;2023-04-15T02:35:47;1.07;;;1.07;;
7110;SDS011;3597;42.650;23.386;2023-04-15T02:38:12;1.03;;;1.03;;
7110;SDS011;3597;42.650;23.386;2023-04-15T02:40:38;1.10;;;1.10;;
7110;SDS011;3597;42.650;23.386;2023-04-15T02:43:04;1.10;;;0.97;;
7110;SDS011;3597;42.650;23.386;2023-04-15T02:45:31;0.90;;;0.90;;
7110;SDS011;3597;42.650;23.386;2023-04-15T02:47:56;0.87;;;0.87;;
7110;SDS011;3597;42.650;23.386;2023-04-15T02:50:22;1.00;;;1.00;;
7110;SDS011;3597;42.650;23.386;2023-04-15T02:52:48;0.97;;;0.97;;
7110;SDS011;3597;42.650;23.386;2023-04-15T02:55:13;1.03;;;1.03;;
7110;SDS011;3597;42.650;23.386;2023-04-15T02:57:39;0.80;;;0.80;;
7110;SDS011;3597;42.650;23.386;2023-04-15T03:00:05;0.80;;;0.80;;
7110;SDS011;3597;42.650;23.386;2023-04-15T03:02:37;0.90;;;0.90;;
7110;SDS011;3597;42.650;23.386;2023-04-15T03:05:03;0.90;;;0.90;;
7110;SDS011;3597;42.650;23.386;2023-04-15T03:07:30;1.13;;;1.13;;
7110;SDS011;3597;42.650;23.386;2023-04-15T03:09:55;1.07;;;1.07;;
7110;SDS011;3597;42.650;23.386;2023-04-15T03:12:21;0.70;;;0.70;;
7110;SDS011;3597;42.650;23.386;2023-04-15T03:14:46;0.97;;;0.97;;
7110;SDS011;3597;42.650;23.386;2023-04-15T03:17:11;1.27;;;1.27;;
7110;SDS011;3597;42.650;23.386;2023-04-15T03:19:37;1.03;;;1.03;;
7110;SDS011;3597;42.650;23.386;2023-04-15T03:22:02;0.90;;;0.90;;
7110;SDS011;3597;42.650;23.386;2023-04-15T03:24:27;1.10;;;1.10;;
7110;SDS011;3597;42.650;23.386;2023-04-15T03:26:54;1.20;;;1.20;;
7110;SDS011;3597;42.650;23.386;2023-04-15T03:29:20;0.90;;;0.90;;
7110;SDS011;3597;42.650;23.386;2023-04-15T03:31:45;1.93;;;1.83;;
7110;SDS011;3597;42.650;23.386;2023-04-15T03:34:11;1.00;;;1.00;;
7110;SDS011;3597;42.650;23.386;2023-04-15T03:36:36;0.97;;;0.97;;
7110;SDS011;3597;42.650;23.386;2023-04-15T03:39:01;1.10;;;1.10;;
7110;SDS011;3597;42.650;23.386;2023-04-15T03:41:27;0.97;;;0.97;;
7110;SDS011;3597;42.650;23.386;2023-04-15T03:43:52;1.10;;;1.10;;
7110;SDS011;3597;42.650;23.386;2023-04-15T03:46:18;1.00;;;1.00;;
7110;SDS011;3597;42.650;23.386;2023-04-15T03:48:43;1.03;;;1.03;;
7110;SDS011;3597;42.650;23.386;2023-04-15T03:51:09;0.90;;;0.90;;
7110;SDS011;3597;42.650;23.386;2023-04-15T03:53:34;1.00;;;1.00;;
7110;SDS011;3597;42.650;23.386;2023-04-15T03:56:00;0.80;;;0.80;;
7110;SDS011;3597;42.650;23.386;2023-04-15T03:58:26;1.20;;;1.20;;
7110;SDS011;3597;42.650;23.386;2023-04-15T04:00:51;0.80;;;0.80;;
7110;SDS011;3597;42.650;23.386;2023-04-15T04:03:17;1.03;;;1.03;;
7110;SDS011;3597;42.650;23.386;2023-04-15T04:05:42;0.90;;;0.90;;
7110;SDS011;3597;42.650;23.386;2023-04-15T04:08:08;1.30;;;1.30;;
7110;SDS011;3597;42.650;23.386;2023-04-15T04:10:34;1.00;;;1.00;;
7110;SDS011;3597;42.650;23.386;2023-04-15T04:12:59;2.33;;;1.20;;
7110;SDS011;3597;42.650;23.386;2023-04-15T04:15:25;1.00;;;1.00;;
7110;SDS011;3597;42.650;23.386;2023-04-15T04:17:51;0.90;;;0.90;;
7110;SDS011;3597;42.650;23.386;2023-04-15T04:20:16;1.20;;;1.20;;
7110;SDS011;3597;42.650;23.386;2023-04-15T04:22:41;1.23;;;1.23;;
7110;SDS011;3597;42.650;23.386;2023-04-15T04:25:07;1.30;;;1.30;;
7110;SDS011;3597;42.650;23.386;2023-04-15T04:27:34;1.10;;;1.10;;
7110;SDS011;3597;42.650;23.386;2023-04-15T04:30:00;1.03;;;0.93;;
7110;SDS011;3597;42.650;23.386;2023-04-15T04:32:25;1.60;;;1.60;;
7110;SDS011;3597;42.650;23.386;2023-04-15T04:34:51;1.40;;;1.40;;
7110;SDS011;3597;42.650;23.386;2023-04-15T04:37:16;1.47;;;1.47;;
7110;SDS011;3597;42.650;23.386;2023-04-15T04:39:41;1.73;;;1.73;;
7110;SDS011;3597;42.650;23.386;2023-04-15T04:42:07;1.37;;;1.37;;
7110;SDS011;3597;42.650;23.386;2023-04-15T04:44:32;2.00;;;2.00;;
7110;SDS011;3597;42.650;23.386;2023-04-15T04:46:58;1.97;;;1.70;;
7110;SDS011;3597;42.650;23.386;2023-04-15T04:49:23;1.73;;;1.63;;
7110;SDS011;3597;42.650;23.386;2023-04-15T04:51:48;1.73;;;1.73;;
7110;SDS011;3597;42.650;23.386;2023-04-15T04:54:14;2.30;;;2.30;;
7110;SDS011;3597;42.650;23.386;2023-04-15T04:56:40;2.40;;;2.30;;
7110;SDS011;3597;42.650;23.386;2023-04-15T04:59:05;2.10;;;2.10;;
7110;SDS011;3597;42.650;23.386;2023-04-15T05:01:31;2.30;;;2.20;;
7110;SDS011;3597;42.650;23.386;2023-04-15T05:03:57;1.80;;;1.80;;
7110;SDS011;3597;42.650;23.386;2023-04-15T05:06:22;1.80;;;1.80;;
7110;SDS011;3597;42.650;23.386;2023-04-15T05:08:48;2.60;;;2.50;;
7110;SDS011;3597;42.650;23.386;2023-04-15T05:11:13;2.17;;;2.13;;
7110;SDS011;3597;42.650;23.386;2023-04-15T05:13:38;2.47;;;2.47;;
7110;SDS011;3597;42.650;23.386;2023-04-15T05:16:04;2.60;;;2.60;;
7110;SDS011;3597;42.650;23.386;2023-04-15T05:18:30;3.03;;;2.90;;
7110;SDS011;3597;42.650;23.386;2023-04-15T05:20:56;3.33;;;3.30;;
7110;SDS011;3597;42.650;23.386;2023-04-15T05:23:21;3.07;;;2.97;;
7110;SDS011;3597;42.650;23.386;2023-04-15T05:25:46;2.87;;;2.80;;
7110;SDS011;3597;42.650;23.386;2023-04-15T05:28:12;2.50;;;2.50;;
7110;SDS011;3597;42.650;23.386;2023-04-15T05:30:37;1.97;;;1.97;;
7110;SDS011;3597;42.650;23.386;2023-04-15T05:33:03;1.83;;;1.83;;
7110;SDS011;3597;42.650;23.386;2023-04-15T05:35:28;1.97;;;1.97;;
7110;SDS011;3597;42.650;23.386;2023-04-15T05:37:53;2.20;;;2.10;;
7110;SDS011;3597;42.650;23.386;2023-04-15T05:40:19;2.30;;;2.20;;
7110;SDS011;3597;42.650;23.386;2023-04-15T05:42:44;1.90;;;1.90;;
7110;SDS011;3597;42.650;23.386;2023-04-15T05:45:10;1.70;;;1.70;;
7110;SDS011;3597;42.650;23.386;2023-04-15T05:47:36;2.17;;;2.17;;
7110;SDS011;3597;42.650;23.386;2023-04-15T05:50:02;1.90;;;1.90;;
7110;SDS011;3597;42.650;23.386;2023-04-15T05:52:28;1.90;;;1.90;;
7110;SDS011;3597;42.650;23.386;2023-04-15T05:54:53;1.80;;;1.80;;
7110;SDS011;3597;42.650;23.386;2023-04-15T05:57:18;2.00;;;1.90;;
7110;SDS011;3597;42.650;23.386;2023-04-15T05:59:44;1.70;;;1.70;;
7110;SDS011;3597;42.650;23.386;2023-04-15T06:02:09;1.33;;;1.33;;
7110;SDS011;3597;42.650;23.386;2023-04-15T06:04:34;1.40;;;1.40;;
7110;SDS011;3597;42.650;23.386;2023-04-15T06:07:00;1.20;;;1.20;;
7110;SDS011;3597;42.650;23.386;2023-04-15T06:09:26;1.33;;;1.33;;
7110;SDS011;3597;42.650;23.386;2023-04-15T06:11:52;1.43;;;1.43;;
7110;SDS011;3597;42.650;23.386;2023-04-15T06:14:18;1.83;;;1.80;;
7110;SDS011;3597;42.650;23.386;2023-04-15T06:16:45;1.87;;;1.77;;
7110;SDS011;3597;42.650;23.386;2023-04-15T06:19:10;1.50;;;1.50;;
7110;SDS011;3597;42.650;23.386;2023-04-15T06:21:36;1.67;;;1.67;;
7110;SDS011;3597;42.650;23.386;2023-04-15T06:24:02;1.50;;;1.50;;
7110;SDS011;3597;42.650;23.386;2023-04-15T06:26:27;1.50;;;1.50;;
7110;SDS011;3597;42.650;23.386;2023-04-15T06:28:53;1.47;;;1.47;;
7110;SDS011;3597;42.650;23.386;2023-04-15T06:31:18;1.43;;;1.43;;
7110;SDS011;3597;42.650;23.386;2023-04-15T06:33:43;1.70;;;1.50;;
7110;SDS011;3597;42.650;23.386;2023-04-15T06:36:09;1.40;;;1.40;;
7110;SDS011;3597;42.650;23.386;2023-04-15T06:38:35;1.83;;;1.73;;
7110;SDS011;3597;42.650;23.386;2023-04-15T06:41:00;2.23;;;1.47;;
7110;SDS011;3597;42.650;23.386;2023-04-15T06:43:25;1.50;;;1.50;;
7110;SDS011;3597;42.650;23.386;2023-04-15T06:45:51;1.87;;;1.87;;
7110;SDS011;3597;42.650;23.386;2023-04-15T06:48:16;1.30;;;1.30;;
7110;SDS011;3597;42.650;23.386;2023-04-15T06:50:42;1.60;;;1.60;;
7110;SDS011;3597;42.650;23.386;2023-04-15T06:53:07;1.80;;;1.73;;
7110;SDS011;3597;42.650;23.386;2023-04-15T06:55:32;1.60;;;1.60;;
7110;SDS011;3597;42.650;23.386;2023-04-15T06:57:58;1.53;;;1.43;;
7110;SDS011;3597;42.650;23.386;2023-04-15T07:00:23;1.23;;;1.23;;
7110;SDS011;3597;42.650;23.386;2023-04-15T07:02:49;1.63;;;1.63;;
7110;SDS011;3597;42.650;23.386;2023-04-15T07:05:15;1.40;;;1.40;;
7110;SDS011;3597;42.650;23.386;2023-04-15T07:07:41;2.00;;;1.60;;
7110;SDS011;3597;42.650;23.386;2023-04-15T07:10:06;1.40;;;1.40;;
7110;SDS011;3597;42.650;23.386;2023-04-15T07:12:32;1.70;;;1.60;;
7110;SDS011;3597;42.650;23.386;2023-04-15T07:14:59;2.17;;;1.27;;
7110;SDS011;3597;42.650;23.386;2023-04-15T07:17:24;1.63;;;1.60;;
7110;SDS011;3597;42.650;23.386;2023-04-15T07:19:50;1.47;;;1.47;;
7110;SDS011;3597;42.650;23.386;2023-04-15T07:22:15;1.53;;;1.47;;
7110;SDS011;3597;42.650;23.386;2023-04-15T07:24:40;1.47;;;1.47;;
7110;SDS011;3597;42.650;23.386;2023-04-15T07:27:06;1.70;;;1.70;;
7110;SDS011;3597;42.650;23.386;2023-04-15T07:29:32;1.70;;;1.70;;
7110;SDS011;3597;42.650;23.386;2023-04-15T07:31:57;2.17;;;1.60;;
7110;SDS011;3597;42.650;23.386;2023-04-15T07:34:23;2.23;;;1.47;;
7110;SDS011;3597;42.650;23.386;2023-04-15T07:36:48;1.27;;;1.27;;
7110;SDS011;3597;42.650;23.386;2023-04-15T07:39:15;1.37;;;1.37;;
7110;SDS011;3597;42.650;23.386;2023-04-15T07:41:41;1.37;;;1.37;;
7110;SDS011;3597;42.650;23.386;2023-04-15T07:44:07;1.60;;;1.60;;
7110;SDS011;3597;42.650;23.386;2023-04-15T07:46:33;1.53;;;1.40;;
7110;SDS011;3597;42.650;23.386;2023-04-15T07:48:58;1.53;;;1.40;;
7110;SDS011;3597;42.650;23.386;2023-04-15T07:51:24;2.10;;;1.40;;
7110;SDS011;3597;42.650;23.386;2023-04-15T07:53:49;1.30;;;1.30;;
7110;SDS011;3597;42.650;23.386;2023-04-15T07:56:15;1.37;;;1.37;;
7110;SDS011;3597;42.650;23.386;2023-04-15T07:58:41;1.30;;;1.30;;
7110;SDS011;3597;42.650;23.386;2023-04-15T08:01:07;1.40;;;1.40;;
7110;SDS011;3597;42.650;23.386;2023-04-15T08:03:33;1.57;;;1.57;;
7110;SDS011;3597;42.650;23.386;2023-04-15T08:05:58;1.50;;;1.50;;
7110;SDS011;3597;42.650;23.386;2023-04-15T08:08:24;1.40;;;1.40;;
7110;SDS011;3597;42.650;23.386;2023-04-15T08:10:50;1.50;;;1.40;;
7110;SDS011;3597;42.650;23.386;2023-04-15T08:13:15;1.40;;;1.40;;
7110;SDS011;3597;42.650;23.386;2023-04-15T08:15:41;1.53;;;1.53;;
7110;SDS011;3597;42.650;23.386;2023-04-15T08:18:06;1.30;;;1.30;;
7110;SDS011;3597;42.650;23.386;2023-04-15T08:20:32;2.00;;;1.63;;
7110;SDS011;3597;42.650;23.386;2023-04-15T08:22:57;1.90;;;1.80;;
7110;SDS011;3597;42.650;23.386;2023-04-15T08:25:23;1.60;;;1.60;;
7110;SDS011;3597;42.650;23.386;2023-04-15T08:27:48;1.50;;;1.50;;
7110;SDS011;3597;42.650;23.386;2023-04-15T08:30:14;1.60;;;1.60;;
7110;SDS011;3597;42.650;23.386;2023-04-15T08:32:40;2.20;;;2.00;;
7110;SDS011;3597;42.650;23.386;2023-04-15T08:35:06;1.93;;;1.87;;
7110;SDS011;3597;42.650;23.386;2023-04-15T08:37:32;1.60;;;1.60;;
7110;SDS011;3597;42.650;23.386;2023-04-15T08:39:57;1.40;;;1.40;;
7110;SDS011;3597;42.650;23.386;2023-04-15T08:42:25;1.40;;;1.40;;
7110;SDS011;3597;42.650;23.386;2023-04-15T08:44:52;1.30;;;1.30;;
7110;SDS011;3597;42.650;23.386;2023-04-15T08:47:19;1.70;;;1.70;;
7110;SDS011;3597;42.650;23.386;2023-04-15T08:49:45;1.70;;;1.70;;
7110;SDS011;3597;42.650;23.386;2023-04-15T08:52:17;1.70;;;1.70;;
7110;SDS011;3597;42.650;23.386;2023-04-15T08:54:42;1.60;;;1.50;;
7110;SDS011;3597;42.650;23.386;2023-04-15T08:57:08;1.33;;;1.33;;
7110;SDS011;3597;42.650;23.386;2023-04-15T08:59:33;1.50;;;1.50;;
7110;SDS011;3597;42.650;23.386;2023-04-15T09:01:59;2.00;;;2.00;;
7110;SDS011;3597;42.650;23.386;2023-04-15T09:04:25;1.50;;;1.50;;
7110;SDS011;3597;42.650;23.386;2023-04-15T09:06:52;1.40;;;1.40;;
7110;SDS011;3597;42.650;23.386;2023-04-15T09:09:17;1.40;;;1.30;;
7110;SDS011;3597;42.650;23.386;2023-04-15T09:11:42;1.30;;;1.30;;
7110;SDS011;3597;42.650;23.386;2023-04-15T09:14:08;1.20;;;1.20;;
7110;SDS011;3597;42.650;23.386;2023-04-15T09:16:54;1.00;;;1.00;;
7110;SDS011;3597;42.650;23.386;2023-04-15T09:19:24;1.20;;;1.20;;
7110;SDS011;3597;42.650;23.386;2023-04-15T09:21:50;1.13;;;1.13;;
7110;SDS011;3597;42.650;23.386;2023-04-15T09:24:17;1.20;;;1.20;;
7110;SDS011;3597;42.650;23.386;2023-04-15T09:26:43;1.10;;;1.10;;
7110;SDS011;3597;42.650;23.386;2023-04-15T09:29:09;1.10;;;1.10;;
7110;SDS011;3597;42.650;23.386;2023-04-15T09:31:37;1.00;;;1.00;;
7110;SDS011;3597;42.650;23.386;2023-04-15T09:34:03;1.00;;;1.00;;
7110;SDS011;3597;42.650;23.386;2023-04-15T09:36:35;1.20;;;1.20;;
7110;SDS011;3597;42.650;23.386;2023-04-15T09:39:04;1.33;;;1.33;;
7110;SDS011;3597;42.650;23.386;2023-04-15T09:41:30;1.10;;;1.10;;
7110;SDS011;3597;42.650;23.386;2023-04-15T09:43:55;1.20;;;1.20;;
7110;SDS011;3597;42.650;23.386;2023-04-15T09:46:20;1.30;;;1.30;;
7110;SDS011;3597;42.650;23.386;2023-04-15T09:49:08;1.20;;;1.20;;
7110;SDS011;3597;42.650;23.386;2023-04-15T09:51:34;1.47;;;1.47;;
7110;SDS011;3597;42.650;23.386;2023-04-15T09:54:00;6.73;;;1.40;;
7110;SDS011;3597;42.650;23.386;2023-04-15T09:56:31;1.50;;;1.40;;
7110;SDS011;3597;42.650;23.386;2023-04-15T09:59:05;2.30;;;1.33;;
7110;SDS011;3597;42.650;23.386;2023-04-15T10:01:30;1.10;;;1.10;;
7110;SDS011;3597;42.650;23.386;2023-04-15T10:03:56;1.30;;;1.30;;
7110;SDS011;3597;42.650;23.386;2023-04-15T10:06:22;1.40;;;1.40;;
7110;SDS011;3597;42.650;23.386;2023-04-15T10:08:53;1.20;;;1.20;;
7110;SDS011;3597;42.650;23.386;2023-04-15T10:11:18;1.27;;;1.27;;
7110;SDS011;3597;42.650;23.386;2023-04-15T10:13:45;1.80;;;1.30;;
7110;SDS011;3597;42.650;23.386;2023-04-15T10:16:12;1.30;;;1.30;;
7110;SDS011;3597;42.650;23.386;2023-04-15T10:18:43;1.40;;;1.40;;
7110;SDS011;3597;42.650;23.386;2023-04-15T10:21:09;1.20;;;1.20;;
7110;SDS011;3597;42.650;23.386;2023-04-15T10:23:34;1.20;;;1.20;;
7110;SDS011;3597;42.650;23.386;2023-04-15T10:26:00;1.33;;;1.33;;
7110;SDS011;3597;42.650;23.386;2023-04-15T10:28:27;1.30;;;1.30;;
7110;SDS011;3597;42.650;23.386;2023-04-15T10:30:52;1.50;;;1.50;;
7110;SDS011;3597;42.650;23.386;2023-04-15T10:33:19;1.50;;;1.50;;
7110;SDS011;3597;42.650;23.386;2023-04-15T10:35:45;1.50;;;1.50;;
7110;SDS011;3597;42.650;23.386;2023-04-15T10:43:48;1.50;;;1.50;;
7110;SDS011;3597;42.650;23.386;2023-04-15T10:46:18;1.60;;;1.60;;
7110;SDS011;3597;42.650;23.386;2023-04-15T10:48:51;1.50;;;1.50;;
7110;SDS011;3597;42.650;23.386;2023-04-15T10:51:29;1.50;;;1.50;;
7110;SDS011;3597;42.650;23.386;2023-04-15T10:53:56;1.20;;;1.20;;
7110;SDS011;3597;42.650;23.386;2023-04-15T10:56:23;1.63;;;1.57;;
7110;SDS011;3597;42.650;23.386;2023-04-15T10:58:48;1.40;;;1.40;;
7110;SDS011;3597;42.650;23.386;2023-04-15T11:01:14;1.30;;;1.30;;
7110;SDS011;3597;42.650;23.386;2023-04-15T11:03:40;1.50;;;1.50;;
7110;SDS011;3597;42.650;23.386;2023-04-15T11:06:07;1.50;;;1.50;;
7110;SDS011;3597;42.650;23.386;2023-04-15T11:11:25;1.30;;;1.30;;
7110;SDS011;3597;42.650;23.386;2023-04-15T11:14:26;1.43;;;1.43;;
7110;SDS011;3597;42.650;23.386;2023-04-15T11:16:52;2.57;;;1.43;;
7110;SDS011;3597;42.650;23.386;2023-04-15T11:19:17;1.50;;;1.50;;
7110;SDS011;3597;42.650;23.386;2023-04-15T11:21:42;1.60;;;1.60;;
7110;SDS011;3597;42.650;23.386;2023-04-15T11:24:08;1.40;;;1.40;;
7110;SDS011;3597;42.650;23.386;2023-04-15T11:26:33;1.57;;;1.47;;
7110;SDS011;3597;42.650;23.386;2023-04-15T11:28:59;1.83;;;1.40;;
7110;SDS011;3597;42.650;23.386;2023-04-15T11:31:25;1.33;;;1.33;;
7110;SDS011;3597;42.650;23.386;2023-04-15T11:36:17;1.13;;;1.13;;
7110;SDS011;3597;42.650;23.386;2023-04-15T11:38:43;1.27;;;1.27;;
7110;SDS011;3597;42.650;23.386;2023-04-15T11:41:10;1.30;;;1.30;;
7110;SDS011;3597;42.650;23.386;2023-04-15T11:43:35;1.40;;;1.40;;
7110;SDS011;3597;42.650;23.386;2023-04-15T11:46:01;1.40;;;1.30;;
7110;SDS011;3597;42.650;23.386;2023-04-15T11:48:28;1.30;;;1.30;;
7110;SDS011;3597;42.650;23.386;2023-04-15T11:50:58;1.30;;;1.30;;
7110;SDS011;3597;42.650;23.386;2023-04-15T11:56:10;1.10;;;1.10;;
7110;SDS011;3597;42.650;23.386;2023-04-15T11:58:48;1.20;;;1.20;;
7110;SDS011;3597;42.650;23.386;2023-04-15T12:01:16;1.10;;;1.10;;
7110;SDS011;3597;42.650;23.386;2023-04-15T12:03:44;1.30;;;1.30;;
7110;SDS011;3597;42.650;23.386;2023-04-15T12:16:51;1.10;;;1.10;;
7110;SDS011;3597;42.650;23.386;2023-04-15T12:22:07;1.00;;;1.00;;
7110;SDS011;3597;42.650;23.386;2023-04-15T12:24:35;1.40;;;1.30;;
7110;SDS011;3597;42.650;23.386;2023-04-15T12:27:04;1.10;;;1.10;;
7110;SDS011;3597;42.650;23.386;2023-04-15T12:29:32;1.10;;;1.10;;
7110;SDS011;3597;42.650;23.386;2023-04-15T12:34:41;1.10;;;1.10;;
7110;SDS011;3597;42.650;23.386;2023-04-15T12:37:10;0.90;;;0.90;;
7110;SDS011;3597;42.650;23.386;2023-04-15T12:39:37;1.00;;;1.00;;
7110;SDS011;3597;42.650;23.386;2023-04-15T12:42:21;0.90;;;0.90;;
7110;SDS011;3597;42.650;23.386;2023-04-15T12:44:47;1.10;;;1.10;;
7110;SDS011;3597;42.650;23.386;2023-04-15T12:47:12;1.00;;;1.00;;
7110;SDS011;3597;42.650;23.386;2023-04-15T12:49:38;1.00;;;1.00;;
7110;SDS011;3597;42.650;23.386;2023-04-15T12:52:03;1.00;;;1.00;;
7110;SDS011;3597;42.650;23.386;2023-04-15T12:54:29;1.20;;;1.20;;
7110;SDS011;3597;42.650;23.386;2023-04-15T12:56:55;1.10;;;1.10;;
7110;SDS011;3597;42.650;23.386;2023-04-15T12:59:21;1.10;;;1.10;;
7110;SDS011;3597;42.650;23.386;2023-04-15T13:01:48;1.00;;;1.00;;
7110;SDS011;3597;42.650;23.386;2023-04-15T13:04:15;1.10;;;1.10;;
7110;SDS011;3597;42.650;23.386;2023-04-15T13:06:41;1.00;;;1.00;;
7110;SDS011;3597;42.650;23.386;2023-04-15T13:09:06;1.10;;;1.10;;
7110;SDS011;3597;42.650;23.386;2023-04-15T13:11:32;1.10;;;1.10;;
7110;SDS011;3597;42.650;23.386;2023-04-15T13:14:01;0.90;;;0.90;;
7110;SDS011;3597;42.650;23.386;2023-04-15T13:16:28;0.93;;;0.93;;
7110;SDS011;3597;42.650;23.386;2023-04-15T13:18:53;1.00;;;1.00;;
7110;SDS011;3597;42.650;23.386;2023-04-15T13:21:19;0.90;;;0.90;;
7110;SDS011;3597;42.650;23.386;2023-04-15T13:23:44;1.00;;;1.00;;
7110;SDS011;3597;42.650;23.386;2023-04-15T13:26:10;1.00;;;1.00;;
7110;SDS011;3597;42.650;23.386;2023-04-15T13:28:36;1.10;;;1.10;;
7110;SDS011;3597;42.650;23.386;2023-04-15T13:31:02;1.00;;;1.00;;
7110;SDS011;3597;42.650;23.386;2023-04-15T13:33:27;1.00;;;1.00;;
7110;SDS011;3597;42.650;23.386;2023-04-15T13:35:52;1.70;;;1.07;;
7110;SDS011;3597;42.650;23.386;2023-04-15T13:38:18;1.13;;;1.13;;
7110;SDS011;3597;42.650;23.386;2023-04-15T13:40:43;1.10;;;1.10;;
7110;SDS011;3597;42.650;23.386;2023-04-15T13:43:09;1.20;;;1.20;;
7110;SDS011;3597;42.650;23.386;2023-04-15T13:45:35;1.03;;;1.03;;
7110;SDS011;3597;42.650;23.386;2023-04-15T13:48:00;1.20;;;1.20;;
7110;SDS011;3597;42.650;23.386;2023-04-15T13:50:26;1.00;;;1.00;;
7110;SDS011;3597;42.650;23.386;2023-04-15T13:52:52;1.10;;;1.10;;
7110;SDS011;3597;42.650;23.386;2023-04-15T13:55:17;1.10;;;1.10;;
7110;SDS011;3597;42.650;23.386;2023-04-15T13:57:43;1.00;;;1.00;;
7110;SDS011;3597;42.650;23.386;2023-04-15T14:00:09;1.00;;;1.00;;
7110;SDS011;3597;42.650;23.386;2023-04-15T14:02:35;1.00;;;1.00;;
7110;SDS011;3597;42.650;23.386;2023-04-15T14:05:00;1.00;;;1.00;;
7110;SDS011;3597;42.650;23.386;2023-04-15T14:07:26;1.10;;;1.10;;
7110;SDS011;3597;42.650;23.386;2023-04-15T14:09:53;1.00;;;1.00;;
7110;SDS011;3597;42.650;23.386;2023-04-15T14:12:19;1.20;;;1.20;;
7110;SDS011;3597;42.650;23.386;2023-04-15T14:14:44;1.07;;;1.07;;
7110;SDS011;3597;42.650;23.386;2023-04-15T14:17:10;0.97;;;0.97;;
7110;SDS011;3597;42.650;23.386;2023-04-15T14:19:35;1.10;;;1.10;;
7110;SDS011;3597;42.650;23.386;2023-04-15T14:22:00;1.20;;;1.20;;
7110;SDS011;3597;42.650;23.386;2023-04-15T14:24:27;1.13;;;1.13;;
7110;SDS011;3597;42.650;23.386;2023-04-15T14:26:52;1.03;;;1.03;;
7110;SDS011;3597;42.650;23.386;2023-04-15T14:29:18;1.30;;;1.30;;
7110;SDS011;3597;42.650;23.386;2023-04-15T14:31:44;1.07;;;1.07;;
7110;SDS011;3597;42.650;23.386;2023-04-15T14:34:10;1.10;;;1.10;;
7110;SDS011;3597;42.650;23.386;2023-04-15T14:36:35;1.00;;;1.00;;
7110;SDS011;3597;42.650;23.386;2023-04-15T14:39:01;1.10;;;1.10;;
7110;SDS011;3597;42.650;23.386;2023-04-15T14:41:28;1.00;;;1.00;;
7110;SDS011;3597;42.650;23.386;2023-04-15T14:43:53;1.00;;;1.00;;
7110;SDS011;3597;42.650;23.386;2023-04-15T14:46:19;1.00;;;1.00;;
7110;SDS011;3597;42.650;23.386;2023-04-15T14:48:44;1.00;;;1.00;;
7110;SDS011;3597;42.650;23.386;2023-04-15T14:51:09;1.10;;;1.10;;
7110;SDS011;3597;42.650;23.386;2023-04-15T14:53:35;1.10;;;1.10;;
7110;SDS011;3597;42.650;23.386;2023-04-15T14:56:00;1.10;;;1.10;;
7110;SDS011;3597;42.650;23.386;2023-04-15T14:58:26;1.10;;;1.10;;
7110;SDS011;3597;42.650;23.386;2023-04-15T15:00:51;1.10;;;1.10;;
7110;SDS011;3597;42.650;23.386;2023-04-15T15:03:16;1.00;;;1.00;;
7110;SDS011;3597;42.650;23.386;2023-04-15T15:05:43;1.27;;;1.27;;
7110;SDS011;3597;42.650;23.386;2023-04-15T15:08:10;1.20;;;1.20;;
7110;SDS011;3597;42.650;23.386;2023-04-15T15:10:36;1.30;;;1.30;;
7110;SDS011;3597;42.650;23.386;2023-04-15T15:13:06;1.20;;;1.20;;
7110;SDS011;3597;42.650;23.386;2023-04-15T15:15:33;1.00;;;1.00;;
7110;SDS011;3597;42.650;23.386;2023-04-15T15:17:59;1.00;;;1.00;;
7110;SDS011;3597;42.650;23.386;2023-04-15T15:20:25;1.20;;;1.20;;
7110;SDS011;3597;42.650;23.386;2023-04-15T15:22:50;1.20;;;1.20;;